createdAt,value
2019-05-25T00:02:42.341Z,51.37
2019-05-25T00:07:46.023Z,48.17
2019-05-25T00:12:49.599Z,49.10
2019-05-25T00:17:53.278Z,48.23
2019-05-25T00:22:56.926Z,48.80
2019-05-25T00:28:00.683Z,48.23
2019-05-25T00:33:04.413Z,48.50
2019-05-25T00:38:08.171Z,48.57
2019-05-25T00:43:11.933Z,47.87
2019-05-25T00:48:15.598Z,47.30
2019-05-25T00:53:19.306Z,47.93
2019-05-25T00:58:22.974Z,48.13
2019-05-25T01:03:26.629Z,48.20
2019-05-25T01:08:30.293Z,48.07
2019-05-25T01:13:34.055Z,47.63
2019-05-25T01:18:37.895Z,47.70
2019-05-25T01:23:41.581Z,48.60
2019-05-25T01:28:45.331Z,48.23
2019-05-25T01:33:48.966Z,48.53
2019-05-25T01:38:52.694Z,48.17
2019-05-25T01:43:56.368Z,47.67
2019-05-25T01:48:59.974Z,48.23
2019-05-25T01:54:03.686Z,47.40
2019-05-25T01:59:07.419Z,48.40
2019-05-25T02:04:11.146Z,48.43
2019-05-25T02:09:14.821Z,47.53
2019-05-25T02:14:18.649Z,47.47
2019-05-25T02:19:22.571Z,47.77
2019-05-25T02:24:26.259Z,48.33
2019-05-25T02:29:29.902Z,46.73
2019-05-25T02:34:33.622Z,47.87
2019-05-25T02:39:37.196Z,48.27
2019-05-25T02:44:40.924Z,48.27
2019-05-25T02:49:44.424Z,48.90
2019-05-25T02:54:48.085Z,47.70
2019-05-25T02:59:51.751Z,47.73
2019-05-25T03:04:55.563Z,48.63
2019-05-25T03:10:00.096Z,47.70
2019-05-25T03:15:05.954Z,47.13
2019-05-25T03:20:10.297Z,46.97
2019-05-25T03:25:14.009Z,47.80
2019-05-25T03:30:21.395Z,48.58
2019-05-25T03:35:24.978Z,47.45
2019-05-25T03:40:28.635Z,49.03
2019-05-25T03:45:32.753Z,48.17
2019-05-25T03:50:36.438Z,48.65
2019-05-25T03:55:40.057Z,47.37
2019-05-25T04:00:44.237Z,48.15
2019-05-25T04:05:47.805Z,48.27
2019-05-25T04:10:52.329Z,47.75
2019-05-25T04:15:55.888Z,47.70
2019-05-25T04:21:00.389Z,48.36
2019-05-25T04:26:04.137Z,49.53
2019-05-25T04:31:07.714Z,49.25
2019-05-25T04:36:11.358Z,48.63
2019-05-25T04:41:15.030Z,50.15
2019-05-25T04:46:21.471Z,52.27
2019-05-25T04:51:23.997Z,52.47
2019-05-25T04:56:38.959Z,52.33
2019-05-25T05:01:32.934Z,53.07
2019-05-25T05:06:36.645Z,54.13
2019-05-25T05:11:40.197Z,53.20
2019-05-25T05:16:43.827Z,53.80
2019-05-25T05:21:47.374Z,56.33
2019-05-25T05:26:55.974Z,53.55
2019-05-25T05:31:56.249Z,53.08
2019-05-25T05:37:01.059Z,52.35
2019-05-25T05:42:06.107Z,54.13
2019-05-25T05:47:11.312Z,53.30
2019-05-25T05:52:17.771Z,52.62
2019-05-25T05:57:21.526Z,54.55
2019-05-25T06:02:25.092Z,53.90
2019-05-25T06:07:28.658Z,54.40
2019-05-25T06:12:32.253Z,53.48
2019-05-25T06:17:35.999Z,52.98
2019-05-25T06:22:39.659Z,52.83
2019-05-25T06:27:43.202Z,53.55
2019-05-25T06:32:46.862Z,52.80
2019-05-25T06:37:50.446Z,52.53
2019-05-25T06:42:53.994Z,53.05
2019-05-25T06:47:57.584Z,54.42
2019-05-25T06:53:01.232Z,54.23
2019-05-25T06:58:05.347Z,54.05
2019-05-25T07:03:08.918Z,54.95
2019-05-25T07:08:12.554Z,54.63
2019-05-25T07:13:16.163Z,55.38
2019-05-25T07:18:19.819Z,55.35
2019-05-25T07:23:24.291Z,55.40
2019-05-25T07:28:27.963Z,55.25
2019-05-25T07:33:31.514Z,55.75
2019-05-25T07:38:35.152Z,55.45
2019-05-25T07:43:38.722Z,55.17
2019-05-25T07:48:42.428Z,55.85
2019-05-25T07:53:46.002Z,54.50
2019-05-25T07:58:49.662Z,55.95
2019-05-25T08:03:53.259Z,54.55
2019-05-25T08:08:56.823Z,54.40
2019-05-25T08:14:00.476Z,55.95
2019-05-25T08:19:04.375Z,55.43
2019-05-25T08:24:08.075Z,55.48
2019-05-25T08:29:11.751Z,56.63
2019-05-25T08:34:15.366Z,55.83
2019-05-25T08:39:19.518Z,55.10
2019-05-25T08:44:23.158Z,54.65
2019-05-25T08:49:26.785Z,54.50
2019-05-25T08:54:30.376Z,54.88
2019-05-25T08:59:33.946Z,54.30
2019-05-25T09:04:37.516Z,54.30
2019-05-25T09:09:41.122Z,54.45
2019-05-25T09:14:44.714Z,53.52
2019-05-25T09:19:48.297Z,54.15
2019-05-25T09:24:52.030Z,54.03
2019-05-25T09:29:55.613Z,54.18
2019-05-25T09:34:59.210Z,53.73
2019-05-25T09:40:02.863Z,54.90
2019-05-25T09:45:07.950Z,55.28
2019-05-25T09:50:12.436Z,55.62
2019-05-25T09:55:16.161Z,55.85
2019-05-25T10:00:20.271Z,56.10
2019-05-25T10:05:24.080Z,56.02
2019-05-25T10:10:28.227Z,55.33
2019-05-25T10:15:31.789Z,55.70
2019-05-25T10:20:35.502Z,55.67
2019-05-25T10:25:39.108Z,54.67
2019-05-25T10:30:42.858Z,55.97
2019-05-25T10:35:46.433Z,55.20
2019-05-25T10:40:50.130Z,55.63
2019-05-25T10:45:53.769Z,55.38
2019-05-25T10:50:57.412Z,55.48
2019-05-25T10:56:01.012Z,55.73
2019-05-25T11:01:04.857Z,55.40
2019-05-25T11:06:08.453Z,55.92
2019-05-25T11:11:12.103Z,55.15
2019-05-25T11:16:15.782Z,55.38
2019-05-25T11:21:19.478Z,55.05
2019-05-25T11:26:23.115Z,54.70
2019-05-25T11:31:26.800Z,54.85
2019-05-25T11:36:30.503Z,54.25
2019-05-25T11:41:34.173Z,53.30
2019-05-25T11:46:37.897Z,53.92
2019-05-25T11:51:41.505Z,54.20
2019-05-25T11:56:45.614Z,55.00
2019-05-25T12:01:49.218Z,55.48
2019-05-25T12:06:53.064Z,53.50
2019-05-25T12:11:56.706Z,54.77
2019-05-25T12:17:00.382Z,54.88
2019-05-25T12:22:04.173Z,54.73
2019-05-25T12:27:07.772Z,55.00
2019-05-25T12:32:11.492Z,54.88
2019-05-25T12:37:15.154Z,54.40
2019-05-25T12:42:18.884Z,55.43
2019-05-25T12:47:22.555Z,54.25
2019-05-25T12:52:26.129Z,54.80
2019-05-25T12:57:29.723Z,54.58
2019-05-25T13:02:33.351Z,55.28
2019-05-25T13:07:37.013Z,55.45
2019-05-25T13:12:40.691Z,54.77
2019-05-25T13:17:44.402Z,55.50
2019-05-25T13:22:47.994Z,54.85
2019-05-25T13:27:51.782Z,54.67
2019-05-25T13:32:55.390Z,55.25
2019-05-25T13:37:59.036Z,54.25
2019-05-25T13:43:05.012Z,53.40
2019-05-25T13:48:08.687Z,54.55
2019-05-25T13:53:12.336Z,54.40
2019-05-25T13:58:15.907Z,53.95
2019-05-25T14:03:19.664Z,53.60
2019-05-25T14:08:23.263Z,54.03
2019-05-25T14:13:26.929Z,54.23
2019-05-25T14:18:30.486Z,53.08
2019-05-25T14:23:34.709Z,53.90
2019-05-25T14:28:38.303Z,54.70
2019-05-25T14:33:41.932Z,54.70
2019-05-25T14:38:45.598Z,54.05
2019-05-25T14:43:49.272Z,54.73
2019-05-25T14:48:52.936Z,55.98
2019-05-25T14:53:56.565Z,53.02
2019-05-25T14:59:00.229Z,55.03
2019-05-25T15:04:03.918Z,52.88
2019-05-25T15:09:08.280Z,52.05
2019-05-25T15:14:11.922Z,53.02
2019-05-25T15:19:15.625Z,53.80
2019-05-25T15:24:19.295Z,54.73
2019-05-25T15:29:23.037Z,53.98
2019-05-25T15:34:26.696Z,53.73
2019-05-25T15:39:30.263Z,53.65
2019-05-25T15:44:33.860Z,52.90
2019-05-25T15:49:37.520Z,52.58
2019-05-25T15:54:41.197Z,52.15
2019-05-25T15:59:44.813Z,52.62
2019-05-25T16:04:48.454Z,52.40
2019-05-25T16:09:52.148Z,52.53
2019-05-25T16:14:55.746Z,53.05
2019-05-25T16:19:59.355Z,52.60
2019-05-25T16:25:03.053Z,52.65
2019-05-25T16:30:07.649Z,53.52
2019-05-25T16:35:11.415Z,53.70
2019-05-25T16:40:16.111Z,52.90
2019-05-25T16:45:19.922Z,54.05
2019-05-25T16:50:23.906Z,54.00
2019-05-25T16:55:27.570Z,53.10
2019-05-25T17:00:31.664Z,53.30
2019-05-25T17:05:35.458Z,53.45
2019-05-25T17:10:39.987Z,52.17
2019-05-25T17:15:43.666Z,52.78
2019-05-25T17:20:47.724Z,51.87
2019-05-25T17:25:51.314Z,51.65
2019-05-25T17:30:55.659Z,51.95
2019-05-25T17:35:59.322Z,53.65
2019-05-25T17:41:03.842Z,52.88
2019-05-25T17:46:07.553Z,52.85
2019-05-25T17:51:11.172Z,53.60
2019-05-25T17:56:14.828Z,53.55
2019-05-25T18:01:18.507Z,53.92
2019-05-25T18:06:22.251Z,54.55
2019-05-25T18:11:25.816Z,54.75
2019-05-25T18:16:29.454Z,53.98
2019-05-25T18:21:33.147Z,53.90
2019-05-25T18:26:36.771Z,54.75
2019-05-25T18:31:40.499Z,53.55
2019-05-25T18:36:44.111Z,53.30
2019-05-25T18:41:47.679Z,52.90
2019-05-25T18:46:51.350Z,52.85
2019-05-25T18:51:54.951Z,52.93
2019-05-25T18:56:58.553Z,53.95
2019-05-25T19:02:02.127Z,53.52
2019-05-25T19:07:05.976Z,53.80
2019-05-25T19:12:09.526Z,53.65
2019-05-25T19:17:13.130Z,53.30
2019-05-25T19:22:16.744Z,53.98
2019-05-25T19:27:20.387Z,54.20
2019-05-25T19:32:24.013Z,55.50
2019-05-25T19:37:27.591Z,54.33
2019-05-25T19:42:31.179Z,57.35
2019-05-25T19:47:34.903Z,55.55
2019-05-25T19:52:38.494Z,54.98
2019-05-25T19:57:45.227Z,56.48
2019-05-25T20:02:47.475Z,55.92
2019-05-25T20:07:51.144Z,60.43
2019-05-25T20:12:54.818Z,57.80
2019-05-25T20:17:58.431Z,56.47
2019-05-25T20:23:02.010Z,64.97
2019-05-25T20:28:05.747Z,59.15
2019-05-25T20:33:09.360Z,57.03
2019-05-25T20:38:13.023Z,58.83
2019-05-25T20:43:16.625Z,59.53
2019-05-25T20:48:20.208Z,55.63
2019-05-25T20:53:24.021Z,54.43
2019-05-25T20:58:27.666Z,55.63
2019-05-25T21:03:31.234Z,55.27
2019-05-25T21:08:34.803Z,55.78
2019-05-25T21:13:38.449Z,58.77
2019-05-25T21:18:42.185Z,58.60
2019-05-25T21:23:45.679Z,57.17
2019-05-25T21:28:49.246Z,57.73
2019-05-25T21:33:52.860Z,61.23
2019-05-25T21:38:56.527Z,58.27
2019-05-25T21:44:00.105Z,57.27
2019-05-25T21:49:03.786Z,57.97
2019-05-25T21:54:08.300Z,61.17
2019-05-25T21:59:11.888Z,60.13
2019-05-25T22:04:15.525Z,67.57
2019-05-25T22:09:19.155Z,64.57
2019-05-25T22:14:22.814Z,65.90
2019-05-25T22:19:26.503Z,54.30
2019-05-25T22:24:30.143Z,53.23
2019-05-25T22:29:33.798Z,52.33
2019-05-25T22:34:37.451Z,51.50
2019-05-25T22:39:41.132Z,51.23
2019-05-25T22:44:44.737Z,52.17
2019-05-25T22:49:48.320Z,51.73
2019-05-25T22:54:51.953Z,50.47
2019-05-25T22:59:55.538Z,50.33
2019-05-25T23:04:59.098Z,50.63
2019-05-25T23:10:03.125Z,49.77
2019-05-25T23:15:09.378Z,49.60
2019-05-25T23:20:14.211Z,48.57
2019-05-25T23:25:20.963Z,49.07
2019-05-25T23:30:25.669Z,50.17
2019-05-25T23:35:29.333Z,49.87
2019-05-25T23:40:32.927Z,50.17
2019-05-25T23:45:36.534Z,50.63
2019-05-25T23:50:41.058Z,50.23
2019-05-25T23:55:44.610Z,49.87
